sensor_id;sensor_type;location;lat;lon;timestamp;pressure;altitude;pressure_sealevel;temperature;humidity
74433;BME280;62865;53.146;23.172;2022-12-10T00:04:48;1015.5;;;2.4;79.4
74433;BME280;62865;53.146;23.172;2022-12-10T00:09:58;1015.5;;;2.4;79.4
74433;BME280;62865;53.146;23.172;2022-12-10T00:14:18;1015.5;;;2.5;79.1
74433;BME280;62865;53.146;23.172;2022-12-10T00:19:58;1015.5;;;2.5;79.2
74433;BME280;62865;53.146;23.172;2022-12-10T00:24:30;1015.5;;;2.5;79.3
74433;BME280;62865;53.146;23.172;2022-12-10T00:29:18;1015.5;;;2.5;79.5
74433;BME280;62865;53.146;23.172;2022-12-10T00:34:26;1015.4;;;2.4;79.6
74433;BME280;62865;53.146;23.172;2022-12-10T00:39:58;1015.4;;;2.4;79.7
74433;BME280;62865;53.146;23.172;2022-12-10T00:44:26;1015.4;;;2.4;80
74433;BME280;62865;53.146;23.172;2022-12-10T00:50:00;1015.4;;;2.4;80.2
74433;BME280;62865;53.146;23.172;2022-12-10T00:54:26;1015.4;;;2.4;80.1
74433;BME280;62865;53.146;23.172;2022-12-10T00:59:38;1015.4;;;2.4;80.1
74433;BME280;62865;53.146;23.172;2022-12-10T01:04:51;1015.4;;;2.4;80.3
74433;BME280;62865;53.146;23.172;2022-12-10T01:09:58;1015.3;;;2.5;79.7
74433;BME280;62865;53.146;23.172;2022-12-10T01:14:19;1015.3;;;2.6;79.2
74433;BME280;62865;53.146;23.172;2022-12-10T01:20:05;1015.3;;;2.5;79.2
74433;BME280;62865;53.146;23.172;2022-12-10T01:24:52;1015.3;;;2.6;79
74433;BME280;62865;53.146;23.172;2022-12-10T01:29:42;1015.2;;;2.6;78.8
74433;BME280;62865;53.146;23.172;2022-12-10T01:34:38;1015.2;;;2.6;78.9
74433;BME280;62865;53.146;23.172;2022-12-10T01:40:03;1015.1;;;2.6;79.1
74433;BME280;62865;53.146;23.172;2022-12-10T01:45:11;1015;;;2.6;79.1
74433;BME280;62865;53.146;23.172;2022-12-10T01:50:05;1015;;;2.5;79.4
74433;BME280;62865;53.146;23.172;2022-12-10T01:54:20;1015;;;2.5;79.4
74433;BME280;62865;53.146;23.172;2022-12-10T01:59:28;1014.8;;;2.6;78.8
74433;BME280;62865;53.146;23.172;2022-12-10T02:04:47;1014.8;;;2.6;78.7
74433;BME280;62865;53.146;23.172;2022-12-10T02:10:06;1014.8;;;2.6;78.9
74433;BME280;62865;53.146;23.172;2022-12-10T02:14:32;1014.8;;;2.6;78.8
74433;BME280;62865;53.146;23.172;2022-12-10T02:20:06;1014.8;;;2.4;79.4
74433;BME280;62865;53.146;23.172;2022-12-10T02:24:52;1014.7;;;2.6;78.9
74433;BME280;62865;53.146;23.172;2022-12-10T02:29:43;1014.6;;;2.6;78.5
74433;BME280;62865;53.146;23.172;2022-12-10T02:34:18;1014.6;;;2.5;79
74433;BME280;62865;53.146;23.172;2022-12-10T02:39:43;1014.6;;;2.3;79.3
74433;BME280;62865;53.146;23.172;2022-12-10T02:44:38;1014.7;;;2.3;79.5
74433;BME280;62865;53.146;23.172;2022-12-10T02:50:05;1014.7;;;2.3;79.1
74433;BME280;62865;53.146;23.172;2022-12-10T02:54:43;1014.7;;;2.4;78.8
74433;BME280;62865;53.146;23.172;2022-12-10T03:00:00;1014.7;;;2.3;78.9
74433;BME280;62865;53.146;23.172;2022-12-10T03:04:53;1014.7;;;2.2;78.9
74433;BME280;62865;53.146;23.172;2022-12-10T03:09:58;1014.7;;;2.2;78.6
74433;BME280;62865;53.146;23.172;2022-12-10T03:14:20;1014.7;;;2.2;78.8
74433;BME280;62865;53.146;23.172;2022-12-10T03:19:50;1014.7;;;2.3;78.6
74433;BME280;62865;53.146;23.172;2022-12-10T03:25:03;1014.8;;;2.3;78.6
74433;BME280;62865;53.146;23.172;2022-12-10T03:29:31;1014.7;;;2.3;78.7
74433;BME280;62865;53.146;23.172;2022-12-10T03:34:30;1014.7;;;2.3;78.9
74433;BME280;62865;53.146;23.172;2022-12-10T03:39:41;1014.6;;;2.2;78.8
74433;BME280;62865;53.146;23.172;2022-12-10T03:44:39;1014.5;;;2.1;79.7
74433;BME280;62865;53.146;23.172;2022-12-10T03:50:05;1014.5;;;2.1;79.6
74433;BME280;62865;53.146;23.172;2022-12-10T03:54:19;1014.5;;;2.1;79.3
74433;BME280;62865;53.146;23.172;2022-12-10T03:59:54;1014.6;;;2;79.7
74433;BME280;62865;53.146;23.172;2022-12-10T04:04:52;1014.6;;;1.9;80.1
74433;BME280;62865;53.146;23.172;2022-12-10T04:09:54;1014.7;;;1.8;80.6
74433;BME280;62865;53.146;23.172;2022-12-10T04:14:18;1014.6;;;1.9;80.3
74433;BME280;62865;53.146;23.172;2022-12-10T04:19:52;1014.5;;;1.9;80.2
74433;BME280;62865;53.146;23.172;2022-12-10T04:25:05;1014.6;;;1.9;80.1
74433;BME280;62865;53.146;23.172;2022-12-10T04:29:19;1014.5;;;1.9;80.1
74433;BME280;62865;53.146;23.172;2022-12-10T04:34:19;1014.6;;;1.9;80.2
74433;BME280;62865;53.146;23.172;2022-12-10T04:39:41;1014.6;;;2;80.2
74433;BME280;62865;53.146;23.172;2022-12-10T04:44:39;1014.7;;;1.9;79.9
74433;BME280;62865;53.146;23.172;2022-12-10T04:50:05;1014.6;;;1.7;80.7
74433;BME280;62865;53.146;23.172;2022-12-10T04:54:29;1014.6;;;1.7;80.8
74433;BME280;62865;53.146;23.172;2022-12-10T04:59:56;1014.6;;;1.6;81.1
74433;BME280;62865;53.146;23.172;2022-12-10T05:04:52;1014.6;;;1.6;80.9
74433;BME280;62865;53.146;23.172;2022-12-10T05:09:56;1014.5;;;1.5;81.2
74433;BME280;62865;53.146;23.172;2022-12-10T05:14:31;1014.5;;;1.5;81.2
74433;BME280;62865;53.146;23.172;2022-12-10T05:20:05;1014.5;;;1.5;80.9
74433;BME280;62865;53.146;23.172;2022-12-10T05:25:05;1014.5;;;1.6;80.7
74433;BME280;62865;53.146;23.172;2022-12-10T05:29:42;1014.5;;;1.6;80.5
74433;BME280;62865;53.146;23.172;2022-12-10T05:34:19;1014.6;;;1.5;80.7
74433;BME280;62865;53.146;23.172;2022-12-10T05:44:38;1014.6;;;1.5;80.7
74433;BME280;62865;53.146;23.172;2022-12-10T05:50:05;1014.6;;;1.3;80.7
74433;BME280;62865;53.146;23.172;2022-12-10T05:54:42;1014.6;;;1.3;81.1
74433;BME280;62865;53.146;23.172;2022-12-10T05:59:57;1014.7;;;1.3;81.2
74433;BME280;62865;53.146;23.172;2022-12-10T06:04:50;1014.7;;;1.4;80.9
74433;BME280;62865;53.146;23.172;2022-12-10T06:09:56;1014.7;;;1.4;81.2
74433;BME280;62865;53.146;23.172;2022-12-10T06:14:31;1014.7;;;1.4;81.1
74433;BME280;62865;53.146;23.172;2022-12-10T06:19:51;1014.6;;;1.4;80.7
74433;BME280;62865;53.146;23.172;2022-12-10T06:25:05;1014.6;;;1.4;80.6
74433;BME280;62865;53.146;23.172;2022-12-10T06:29:29;1014.6;;;1.5;80.4
74433;BME280;62865;53.146;23.172;2022-12-10T06:34:31;1014.6;;;1.6;79.9
74433;BME280;62865;53.146;23.172;2022-12-10T06:39:19;1014.6;;;1.7;79.6
74433;BME280;62865;53.146;23.172;2022-12-10T06:44:41;1014.6;;;1.7;79.6
74433;BME280;62865;53.146;23.172;2022-12-10T06:50:07;1014.7;;;1.7;79.7
74433;BME280;62865;53.146;23.172;2022-12-10T06:54:43;1014.7;;;1.7;79.9
74433;BME280;62865;53.146;23.172;2022-12-10T06:59:21;1014.7;;;1.7;79.9
74433;BME280;62865;53.146;23.172;2022-12-10T07:04:41;1014.8;;;1.7;79.7
74433;BME280;62865;53.146;23.172;2022-12-10T07:09:27;1014.8;;;1.7;79.7
74433;BME280;62865;53.146;23.172;2022-12-10T07:15:07;1014.8;;;1.7;79.7
74433;BME280;62865;53.146;23.172;2022-12-10T07:19:33;1014.9;;;1.7;79.7
74433;BME280;62865;53.146;23.172;2022-12-10T07:24:57;1014.9;;;1.6;79.6
74433;BME280;62865;53.146;23.172;2022-12-10T07:29:55;1014.9;;;1.6;79.6
74433;BME280;62865;53.146;23.172;2022-12-10T07:34:57;1014.8;;;1.6;79.6
74433;BME280;62865;53.146;23.172;2022-12-10T07:39:33;1014.7;;;1.6;79.4
74433;BME280;62865;53.146;23.172;2022-12-10T07:44:55;1014.7;;;1.5;79.6
74433;BME280;62865;53.146;23.172;2022-12-10T07:50:07;1014.7;;;1.4;79.7
74433;BME280;62865;53.146;23.172;2022-12-10T07:54:43;1014.8;;;1.4;79.7
74433;BME280;62865;53.146;23.172;2022-12-10T07:59:19;1014.7;;;1.4;79.8
74433;BME280;62865;53.146;23.172;2022-12-10T08:04:31;1014.8;;;1.4;79.5
74433;BME280;62865;53.146;23.172;2022-12-10T08:09:19;1014.8;;;1.4;79.4
74433;BME280;62865;53.146;23.172;2022-12-10T08:15:01;1014.8;;;1.3;79.1
74433;BME280;62865;53.146;23.172;2022-12-10T08:19:33;1014.8;;;1.3;79.1
74433;BME280;62865;53.146;23.172;2022-12-10T08:24:59;1014.9;;;1.3;78.7
74433;BME280;62865;53.146;23.172;2022-12-10T08:29:53;1014.9;;;1.3;78.5
74433;BME280;62865;53.146;23.172;2022-12-10T08:39:19;1014.9;;;1.4;78.1
74433;BME280;62865;53.146;23.172;2022-12-10T08:44:51;1014.9;;;1.3;78.7
74433;BME280;62865;53.146;23.172;2022-12-10T08:50:09;1014.9;;;1.2;79.2
74433;BME280;62865;53.146;23.172;2022-12-10T08:54:47;1014.9;;;1.2;79
74433;BME280;62865;53.146;23.172;2022-12-10T08:59:31;1014.8;;;1.2;78.6
74433;BME280;62865;53.146;23.172;2022-12-10T09:04:59;1014.8;;;1.3;78.6
74433;BME280;62865;53.146;23.172;2022-12-10T09:09:41;1014.7;;;1.4;77.6
74433;BME280;62865;53.146;23.172;2022-12-10T09:14:59;1014.7;;;1.3;77.5
74433;BME280;62865;53.146;23.172;2022-12-10T09:19:33;1014.7;;;1.3;77.4
74433;BME280;62865;53.146;23.172;2022-12-10T09:24:57;1014.7;;;1.2;77.6
74433;BME280;62865;53.146;23.172;2022-12-10T09:29:53;1014.8;;;1.3;77.4
74433;BME280;62865;53.146;23.172;2022-12-10T09:34:55;1014.7;;;1.2;77.7
74433;BME280;62865;53.146;23.172;2022-12-10T09:39:41;1014.6;;;1.2;77.9
74433;BME280;62865;53.146;23.172;2022-12-10T09:44:53;1014.5;;;1.2;78.2
74433;BME280;62865;53.146;23.172;2022-12-10T09:50:02;1014.6;;;1.3;78.2
74433;BME280;62865;53.146;23.172;2022-12-10T09:54:20;1014.6;;;1.3;78.1
74433;BME280;62865;53.146;23.172;2022-12-10T09:59:29;1014.6;;;1.3;78.5
74433;BME280;62865;53.146;23.172;2022-12-10T10:04:41;1014.6;;;1.3;78.4
74433;BME280;62865;53.146;23.172;2022-12-10T10:09:39;1014.6;;;1.4;77.5
74433;BME280;62865;53.146;23.172;2022-12-10T10:15:09;1014.6;;;1.4;77.3
74433;BME280;62865;53.146;23.172;2022-12-10T10:19:20;1014.6;;;1.4;77.3
74433;BME280;62865;53.146;23.172;2022-12-10T10:24:55;1014.7;;;1.3;77.4
74433;BME280;62865;53.146;23.172;2022-12-10T10:29:52;1014.7;;;1.1;77.9
74433;BME280;62865;53.146;23.172;2022-12-10T10:34:55;1014.7;;;1.1;78.2
74433;BME280;62865;53.146;23.172;2022-12-10T10:39:31;1014.7;;;1.1;78.3
74433;BME280;62865;53.146;23.172;2022-12-10T10:44:53;1014.7;;;1.2;77.5
74433;BME280;62865;53.146;23.172;2022-12-10T10:50:05;1014.7;;;1.3;77.5
74433;BME280;62865;53.146;23.172;2022-12-10T10:54:43;1014.6;;;1.2;77.2
74433;BME280;62865;53.146;23.172;2022-12-10T10:59:24;1014.7;;;1.3;77
74433;BME280;62865;53.146;23.172;2022-12-10T11:04:45;1014.7;;;1.6;75.9
74433;BME280;62865;53.146;23.172;2022-12-10T11:09:30;1014.7;;;1.8;74.6
74433;BME280;62865;53.146;23.172;2022-12-10T11:15:24;1014.7;;;1.8;74.6
74433;BME280;62865;53.146;23.172;2022-12-10T11:19:29;1014.7;;;1.9;74.6
74433;BME280;62865;53.146;23.172;2022-12-10T11:24:55;1014.7;;;1.9;74.6
74433;BME280;62865;53.146;23.172;2022-12-10T11:29:52;1014.7;;;1.9;74.1
74433;BME280;62865;53.146;23.172;2022-12-10T11:35:00;1014.7;;;1.7;74.5
74433;BME280;62865;53.146;23.172;2022-12-10T11:39:37;1014.7;;;1.6;75
74433;BME280;62865;53.146;23.172;2022-12-10T11:45:07;1014.8;;;1.7;75.1
74433;BME280;62865;53.146;23.172;2022-12-10T11:49:38;1014.7;;;1.7;75.1
74433;BME280;62865;53.146;23.172;2022-12-10T11:54:58;1014.7;;;1.8;74.5
74433;BME280;62865;53.146;23.172;2022-12-10T11:59:20;1014.7;;;1.9;73.8
74433;BME280;62865;53.146;23.172;2022-12-10T12:04:33;1014.7;;;1.8;73.6
74433;BME280;62865;53.146;23.172;2022-12-10T12:10:15;1014.7;;;1.8;74
74433;BME280;62865;53.146;23.172;2022-12-10T12:14:54;1014.7;;;1.8;73.9
74433;BME280;62865;53.146;23.172;2022-12-10T12:19:25;1014.7;;;1.9;73.8
74433;BME280;62865;53.146;23.172;2022-12-10T12:25:05;1014.6;;;1.8;74
74433;BME280;62865;53.146;23.172;2022-12-10T12:29:57;1014.5;;;1.9;73.9
74433;BME280;62865;53.146;23.172;2022-12-10T12:34:58;1014.5;;;1.8;74.1
74433;BME280;62865;53.146;23.172;2022-12-10T12:39:20;1014.5;;;1.7;74.3
74433;BME280;62865;53.146;23.172;2022-12-10T12:45:08;1014.5;;;1.7;74.3
74433;BME280;62865;53.146;23.172;2022-12-10T12:49:31;1014.5;;;1.7;74.3
74433;BME280;62865;53.146;23.172;2022-12-10T12:54:31;1014.5;;;1.4;74.6
74433;BME280;62865;53.146;23.172;2022-12-10T12:59:34;1014.5;;;1.4;74.5
74433;BME280;62865;53.146;23.172;2022-12-10T13:04:19;1014.5;;;1.4;74.5
74433;BME280;62865;53.146;23.172;2022-12-10T13:09:49;1014.5;;;0.9;76.5
74433;BME280;62865;53.146;23.172;2022-12-10T13:14:54;1014.6;;;0.9;77
74433;BME280;62865;53.146;23.172;2022-12-10T13:19:31;1014.7;;;0.9;76.8
74433;BME280;62865;53.146;23.172;2022-12-10T13:25:04;1014.8;;;0.9;77.2
74433;BME280;62865;53.146;23.172;2022-12-10T13:29:54;1014.8;;;1;77.2
74433;BME280;62865;53.146;23.172;2022-12-10T13:35:26;1014.8;;;1.1;77.2
74433;BME280;62865;53.146;23.172;2022-12-10T13:39:31;1014.9;;;1.2;77
74433;BME280;62865;53.146;23.172;2022-12-10T13:45:01;1015;;;1.2;76.5
74433;BME280;62865;53.146;23.172;2022-12-10T13:49:43;1015;;;1.2;76.7
74433;BME280;62865;53.146;23.172;2022-12-10T13:55:02;1015;;;1.1;77
74433;BME280;62865;53.146;23.172;2022-12-10T13:59:22;1015.1;;;1.1;76.8
74433;BME280;62865;53.146;23.172;2022-12-10T14:04:33;1015.2;;;1;77.3
74433;BME280;62865;53.146;23.172;2022-12-10T14:10:05;1015.2;;;1;77.3
74433;BME280;62865;53.146;23.172;2022-12-10T14:14:52;1015.2;;;0.9;77.4
74433;BME280;62865;53.146;23.172;2022-12-10T14:19:43;1015.2;;;0.8;77.5
74433;BME280;62865;53.146;23.172;2022-12-10T14:25:04;1015.2;;;0.9;76.9
74433;BME280;62865;53.146;23.172;2022-12-10T14:30:04;1015.2;;;1;76.4
74433;BME280;62865;53.146;23.172;2022-12-10T14:34:55;1015.3;;;1;76.3
74433;BME280;62865;53.146;23.172;2022-12-10T14:39:19;1015.3;;;1;76.3
74433;BME280;62865;53.146;23.172;2022-12-10T14:45:03;1015.5;;;1;75.9
74433;BME280;62865;53.146;23.172;2022-12-10T14:49:38;1015.5;;;1;76
74433;BME280;62865;53.146;23.172;2022-12-10T14:54:39;1015.4;;;1.2;75.6
74433;BME280;62865;53.146;23.172;2022-12-10T14:59:29;1015.4;;;1.3;75.1
74433;BME280;62865;53.146;23.172;2022-12-10T15:04:41;1015.4;;;1.3;75.3
74433;BME280;62865;53.146;23.172;2022-12-10T15:10:01;1015.3;;;1.2;75.4
74433;BME280;62865;53.146;23.172;2022-12-10T15:14:51;1015.2;;;1.1;75.6
74433;BME280;62865;53.146;23.172;2022-12-10T15:19:20;1015.2;;;1.1;75.6
74433;BME280;62865;53.146;23.172;2022-12-10T15:24:53;1015.3;;;1.2;75.6
74433;BME280;62865;53.146;23.172;2022-12-10T15:29:51;1015.3;;;1.3;75.2
74433;BME280;62865;53.146;23.172;2022-12-10T15:34:44;1015.4;;;1.3;75
74433;BME280;62865;53.146;23.172;2022-12-10T15:39:29;1015.5;;;1.3;75
74433;BME280;62865;53.146;23.172;2022-12-10T15:45:08;1015.5;;;1.3;74.9
74433;BME280;62865;53.146;23.172;2022-12-10T15:49:37;1015.5;;;1.2;75.4
74433;BME280;62865;53.146;23.172;2022-12-10T15:55:03;1015.5;;;1.2;75.5
74433;BME280;62865;53.146;23.172;2022-12-10T15:59:19;1015.4;;;1.3;75.1
74433;BME280;62865;53.146;23.172;2022-12-10T16:04:19;1015.4;;;1.2;75.4
74433;BME280;62865;53.146;23.172;2022-12-10T16:09:43;1015.4;;;1.1;75.8
74433;BME280;62865;53.146;23.172;2022-12-10T16:15:01;1015.4;;;1.1;75.8
74433;BME280;62865;53.146;23.172;2022-12-10T16:19:19;1015.4;;;1;76
74433;BME280;62865;53.146;23.172;2022-12-10T16:25:03;1015.4;;;1;76.2
74433;BME280;62865;53.146;23.172;2022-12-10T16:29:51;1015.4;;;0.9;76.7
74433;BME280;62865;53.146;23.172;2022-12-10T16:34:41;1015.4;;;0.9;76.7
74433;BME280;62865;53.146;23.172;2022-12-10T16:39:19;1015.4;;;1;76.5
74433;BME280;62865;53.146;23.172;2022-12-10T16:45:01;1015.4;;;1.2;75.9
74433;BME280;62865;53.146;23.172;2022-12-10T16:49:37;1015.4;;;1.1;76.2
74433;BME280;62865;53.146;23.172;2022-12-10T16:54:49;1015.4;;;1.1;76.3
74433;BME280;62865;53.146;23.172;2022-12-10T16:59:29;1015.4;;;1.1;76.3
74433;BME280;62865;53.146;23.172;2022-12-10T17:04:41;1015.5;;;1;76.5
74433;BME280;62865;53.146;23.172;2022-12-10T17:09:51;1015.5;;;1;76.7
74433;BME280;62865;53.146;23.172;2022-12-10T17:15:03;1015.6;;;0.9;77.1
74433;BME280;62865;53.146;23.172;2022-12-10T17:19:19;1015.5;;;0.9;77.2
74433;BME280;62865;53.146;23.172;2022-12-10T17:25:01;1015.6;;;0.8;77.5
74433;BME280;62865;53.146;23.172;2022-12-10T17:29:51;1015.6;;;0.9;77.2
74433;BME280;62865;53.146;23.172;2022-12-10T17:34:41;1015.5;;;0.9;77
74433;BME280;62865;53.146;23.172;2022-12-10T17:39:31;1015.5;;;0.9;77
74433;BME280;62865;53.146;23.172;2022-12-10T17:45:01;1015.5;;;0.9;77
74433;BME280;62865;53.146;23.172;2022-12-10T17:49:27;1015.5;;;0.7;77.8
74433;BME280;62865;53.146;23.172;2022-12-10T17:55:03;1015.5;;;0.7;77.8
74433;BME280;62865;53.146;23.172;2022-12-10T17:59:27;1015.4;;;0.7;77.6
74433;BME280;62865;53.146;23.172;2022-12-10T18:04:27;1015.3;;;0.6;77.9
74433;BME280;62865;53.146;23.172;2022-12-10T18:09:49;1015.3;;;0.6;78.1
74433;BME280;62865;53.146;23.172;2022-12-10T18:15:01;1015.3;;;0.7;78.1
74433;BME280;62865;53.146;23.172;2022-12-10T18:19:19;1015.3;;;0.8;77.7
74433;BME280;62865;53.146;23.172;2022-12-10T18:25:01;1015.4;;;0.9;77.2
74433;BME280;62865;53.146;23.172;2022-12-10T18:29:41;1015.4;;;0.8;77.4
74433;BME280;62865;53.146;23.172;2022-12-10T18:34:39;1015.6;;;0.7;77.8
74433;BME280;62865;53.146;23.172;2022-12-10T18:39:39;1015.7;;;0.6;78
74433;BME280;62865;53.146;23.172;2022-12-10T18:44:59;1015.7;;;0.4;78.6
74433;BME280;62865;53.146;23.172;2022-12-10T18:49:35;1015.6;;;0.4;78.6
74433;BME280;62865;53.146;23.172;2022-12-10T18:55:01;1015.5;;;0.4;78.7
74433;BME280;62865;53.146;23.172;2022-12-10T18:59:19;1015.4;;;0.5;78.4
74433;BME280;62865;53.146;23.172;2022-12-10T19:04:39;1015.5;;;0.5;78.5
74433;BME280;62865;53.146;23.172;2022-12-10T19:09:50;1015.4;;;0.5;78.5
74433;BME280;62865;53.146;23.172;2022-12-10T19:14:59;1015.3;;;0.4;78.7
74433;BME280;62865;53.146;23.172;2022-12-10T19:19:27;1015.2;;;0.4;78.7
74433;BME280;62865;53.146;23.172;2022-12-10T19:25:01;1015.3;;;0.4;78.6
74433;BME280;62865;53.146;23.172;2022-12-10T19:29:49;1015.4;;;0.4;78.4
74433;BME280;62865;53.146;23.172;2022-12-10T19:34:39;1015.5;;;0.3;78.4
74433;BME280;62865;53.146;23.172;2022-12-10T19:39:29;1015.6;;;0.3;78.4
74433;BME280;62865;53.146;23.172;2022-12-10T19:45:03;1015.8;;;0.4;78.1
74433;BME280;62865;53.146;23.172;2022-12-10T19:49:37;1015.8;;;0.4;78
74433;BME280;62865;53.146;23.172;2022-12-10T19:55:01;1015.9;;;0.4;78
74433;BME280;62865;53.146;23.172;2022-12-10T19:59:43;1015.9;;;0.5;77.9
74433;BME280;62865;53.146;23.172;2022-12-10T20:04:41;1016;;;0.6;78
74433;BME280;62865;53.146;23.172;2022-12-10T20:09:51;1016;;;0.8;77.3
74433;BME280;62865;53.146;23.172;2022-12-10T20:15:03;1016;;;0.8;77.1
74433;BME280;62865;53.146;23.172;2022-12-10T20:19:41;1016;;;0.8;76.8
74433;BME280;62865;53.146;23.172;2022-12-10T20:25:03;1016;;;0.8;76.8
74433;BME280;62865;53.146;23.172;2022-12-10T20:29:51;1015.9;;;0.9;76.8
74433;BME280;62865;53.146;23.172;2022-12-10T20:34:41;1015.6;;;0.9;76.7
74433;BME280;62865;53.146;23.172;2022-12-10T20:39:30;1015.6;;;0.8;77.1
74433;BME280;62865;53.146;23.172;2022-12-10T20:45:03;1015.7;;;0.7;77.4
74433;BME280;62865;53.146;23.172;2022-12-10T20:49:37;1015.8;;;0.5;77.8
74433;BME280;62865;53.146;23.172;2022-12-10T20:55:01;1015.8;;;0.5;78.1
74433;BME280;62865;53.146;23.172;2022-12-10T20:59:29;1015.6;;;0.3;78.3
74433;BME280;62865;53.146;23.172;2022-12-10T21:04:19;1015.6;;;0.3;78.8
74433;BME280;62865;53.146;23.172;2022-12-10T21:09:51;1015.7;;;0.4;78.4
74433;BME280;62865;53.146;23.172;2022-12-10T21:15:03;1015.7;;;0.4;78.1
74433;BME280;62865;53.146;23.172;2022-12-10T21:19:20;1015.8;;;0.4;78.2
74433;BME280;62865;53.146;23.172;2022-12-10T21:25:03;1015.9;;;0.4;78.1
74433;BME280;62865;53.146;23.172;2022-12-10T21:29:51;1015.9;;;0.4;78
74433;BME280;62865;53.146;23.172;2022-12-10T21:34:19;1015.9;;;0.4;77.7
74433;BME280;62865;53.146;23.172;2022-12-10T21:39:29;1015.9;;;0.4;77.9
74433;BME280;62865;53.146;23.172;2022-12-10T21:45:03;1015.9;;;0.3;78
74433;BME280;62865;53.146;23.172;2022-12-10T21:49:49;1015.8;;;0.3;78.3
74433;BME280;62865;53.146;23.172;2022-12-10T21:55:01;1015.7;;;0.3;78.5
74433;BME280;62865;53.146;23.172;2022-12-10T21:59:19;1015.6;;;0.3;78.5
74433;BME280;62865;53.146;23.172;2022-12-10T22:04:29;1015.5;;;0.3;78.6
74433;BME280;62865;53.146;23.172;2022-12-10T22:09:49;1015.6;;;0.2;78.2
74433;BME280;62865;53.146;23.172;2022-12-10T22:15:01;1015.6;;;0.1;78.5
74433;BME280;62865;53.146;23.172;2022-12-10T22:19:19;1015.5;;;0.1;78.6
74433;BME280;62865;53.146;23.172;2022-12-10T22:25:01;1015.5;;;0.2;78.2
74433;BME280;62865;53.146;23.172;2022-12-10T22:29:49;1015.6;;;0.1;77.9
74433;BME280;62865;53.146;23.172;2022-12-10T22:34:27;1015.6;;;0;78.2
74433;BME280;62865;53.146;23.172;2022-12-10T22:39:49;1015.4;;;0;78.2
74433;BME280;62865;53.146;23.172;2022-12-10T22:44:59;1015.4;;;0;78
74433;BME280;62865;53.146;23.172;2022-12-10T22:49:35;1015.3;;;-0.1;78.2
74433;BME280;62865;53.146;23.172;2022-12-10T22:55:01;1015.3;;;-0.1;78.5
74433;BME280;62865;53.146;23.172;2022-12-10T22:59:19;1015.5;;;-0.1;78.5
74433;BME280;62865;53.146;23.172;2022-12-10T23:04:39;1015.5;;;-0.1;78.4
74433;BME280;62865;53.146;23.172;2022-12-10T23:09:49;1015.4;;;0;78.4
74433;BME280;62865;53.146;23.172;2022-12-10T23:14:59;1015.4;;;-0.2;78.6
74433;BME280;62865;53.146;23.172;2022-12-10T23:19:27;1015.4;;;-0.3;79.1
74433;BME280;62865;53.146;23.172;2022-12-10T23:24:59;1015.5;;;-0.3;79
74433;BME280;62865;53.146;23.172;2022-12-10T23:29:37;1015.3;;;-0.3;79.1
74433;BME280;62865;53.146;23.172;2022-12-10T23:34:39;1015.2;;;-0.3;79
74433;BME280;62865;53.146;23.172;2022-12-10T23:39:27;1015.1;;;-0.3;79
74433;BME280;62865;53.146;23.172;2022-12-10T23:45:01;1015;;;-0.3;79.1
74433;BME280;62865;53.146;23.172;2022-12-10T23:49:35;1014.8;;;-0.3;78.9
74433;BME280;62865;53.146;23.172;2022-12-10T23:55:01;1014.8;;;-0.4;79.4
74433;BME280;62865;53.146;23.172;2022-12-10T23:59:19;1014.8;;;-0.3;79.5
